Tiempo atmosférico en la estación meteorológica de Badajoz Aeropuerto, Badajoz (185 m.)



Fecha
DESCASC
Temp. máxima en grados centígrados (hora)
DESCASC
Temp. mínima en grados centígrados (hora)
DESCASC
Temp. media en grados centígrados
DESCASC
Racha de viento máxima en m/sg (hora)
DESCASC
Velocidad máxima media en intervalos de 10 minutos(hora)
DESCASC
Precipitaciones diarias en mm
DESCASC
Precipitaciones de 00:00 a 06:00 en mm
DESCASC
Precipitaciones de 06:00 a 12:00 en mm
DESCASC
Precipitaciones de 12:00 a 18:00 en mm
DESCASC
Precipitaciones de 18:00 a 24:00 en mm
DESCASC
20-09-2018 34.9 (18:20) 18 (08:10) 26.5 7.22 (19:40) 4.72 (19:50) 0 0 0 0 0
19-09-2018 34.7 (17:20) 17.1 (08:50) 25.9 5.28 (15:10) 2.78 (15:10) 0 0 0 0 0
18-09-2018 33.4 (17:50) 18.6 (07:40) 26 7.5 (18:50) 5 (19:10) 0 0 0 0 0
17-09-2018 33.7 (16:10) 19.1 (09:00) 26.4 11.11 (16:30) 5.28 (17:00) 0 0 0 0 0
16-09-2018 33.9 (17:20) 18.5 (00:00) 26.2 6.39 (16:30) 3.89 (18:00) 0 0 0 0 0
15-09-2018 32.4 (17:20) 18.9 (00:00) 25.7 8.89 (00:10) 5 (00:10) 1.6 1.6 0 0 0
14-09-2018 36.2 (17:20) 19 (00:00) 27.6 13.89 (20:50) 7.78 (20:50) 3 0 0 0 3
13-09-2018 36.2 (17:40) 18.8 (00:00) 27.5 5.83 (18:20) 3.33 (18:20) 0 0 0 0 0
12-09-2018 35.2 (17:40) 18.8 (00:00) 27 5.28 (14:20) 2.78 (10:50) 0 0 0 0 0
11-09-2018 33.8 (18:00) 18.5 (00:00) 26.1 8.61 (11:30) 6.11 (11:30) 0 0 0 0 0
10-09-2018 33.8 (17:20) 15.7 (00:00) 24.7 7.5 (13:40) 4.44 (12:50) 0 0 0 0 0
09-09-2018 32.4 (17:30) 17.9 (00:00) 25.2 8.61 (15:10) 4.44 (19:10) 0 0 0 0 0
08-09-2018 29.6 (18:20) 16.5 (00:00) 23.1 7.5 (19:40) 5 (19:20) 0 0 0 0 0
07-09-2018 32.6 (16:40) 15.9 (00:00) 24.2 6.94 (16:10) 3.61 (16:10) 0 0 0 0 0
06-09-2018 29.6 (18:10) 15.7 (00:00) 22.7 5.83 (18:10) 3.89 (18:10) 0 0 0 0 0
05-09-2018 28.5 (17:40) 19.5 (00:00) 24 7.22 (13:30) 4.72 (20:00) 0 0 0 0 0
04-09-2018 28.5 (17:40) 16.3 (00:00) 22.4 8.33 (18:00) 3.89 (18:00) 0 0 0 0 0
03-09-2018 30.5 (18:40) 20.3 (00:00) 25.4 9.17 (17:50) 3.33 (19:30) 0 0 0 0 0
02-09-2018 38.5 (17:10) 21.3 (00:00) 29.9 8.33 (19:50) 5.56 (16:50) 0 0 0 0 0
01-09-2018 40.4 (15:40) 20.1 (00:00) 30.3 10.56 (16:40) 5.28 (17:10) 0 0 0 0 0
31-08-2018 38.3 (18:00) 19.1 (00:00) 28.7 5.83 (16:40) 3.89 (16:40) 0 0 0 0 0
30-08-2018 35.9 (17:10) 16.4 (00:00) 26.2 5.56 (00:10) 3.89 (00:10) 0 0 0 0 0
29-08-2018 32.6 (19:00) 17 (00:00) 24.8 7.78 (22:30) 5.28 (22:40) 0 0 0 0 0
28-08-2018 33.5 (17:00) 20.6 (00:00) 27.1 10.83 (19:20) 7.5 (19:20) 0 0 0 0 0
27-08-2018 39.3 (18:30) 16.2 (00:00) 27.8 8.89 (23:00) 5.28 (14:40) 0 0 0 0 0
26-08-2018 38.6 (17:40) 16.6 (00:00) 27.6 9.44 (17:10) 5 (15:40) 0 0 0 0 0
25-08-2018 37.8 (17:30) 19.2 (00:00) 28.5 8.06 (17:10) 5 (18:20) 0 0 0 0 0

Gráficas

Temp. máximas Temp. mínimas Temp. medias Precipitaciones Rachas de viento máximas Velocidades máximas media en intervalos de 10 minutos

Datos horarios

Fecha y hora oficial Temperatura (ºC) Velocidad del viento (km/h) Dirección del viento Racha (km/h) Dirección de racha Precipitación (mm) Presión (hPa) Tendencia (hPa) Humedad (%)
2018-09-23 23:00:00 27.8 4 Sudeste 5 Nordeste 0 997.7 0.6 36
2018-09-23 22:00:00 28.9 2 Noroeste 3 Noroeste 0 997.6 0.6 37
2018-09-23 21:00:00 31.4 0 Calma 9 Noroeste 0 997.2 0.2 31
2018-09-23 20:00:00 35.3 3 Sudoeste 8 Noroeste 0 997.1 -0.3 24
2018-09-23 19:00:00 37.2 4 Oeste 10 Oeste 0 997 -1.1 20
2018-09-23 18:00:00 37.9 3 Oeste 12 Nordeste 0 997 -1.8 19
2018-09-23 17:00:00 37.8 6 Noroeste 17 Nordeste 0 997.4 -2 19
2018-09-23 16:00:00 37.4 8 Este 19 Nordeste 0 998.1 -1.9 20
2018-09-23 15:00:00 36.4 6 Este 16 Nordeste 0 998.8 -1.7 23
2018-09-23 14:00:00 34.1 9 Este 15 Nordeste 0 999.4 -1.2 28
2018-09-23 13:00:00 31.7 7 Nordeste 15 Este 0 1000 -0.1 32
2018-09-23 12:00:00 28.6 6 Nordeste 10 Este 0 1000.5 0.9 39
2018-09-23 11:00:00 25.1 6 Nordeste 10 Nordeste 0 1000.6 1.4 46
2018-09-23 10:00:00 22 4 Nordeste 6 Nordeste 0 1000.1 1.4 56
2018-09-23 09:00:00 18.7 4 Nordeste 7 Sudeste 0 999.6 1.1 68
2018-09-23 08:00:00 19.5 4 Este 8 Sudoeste 0 999.2 0.7 60
2018-09-23 07:00:00 19.9 0 Calma 4 Oeste 0 998.7 -0.2 59
2018-09-23 06:00:00 20.9 2 Sudoeste 9 Oeste 0 998.5 -0.7 58
2018-09-23 05:00:00 21.6 3 Sudeste 7 Sur 0 998.5 -0.7 51
2018-09-23 04:00:00 21.5 5 Este 6 Este 0 998.9 -0.2 54
2018-09-23 03:00:00 22.9 2 Sudeste 10 Sudoeste 0 999.2 0.4 47
2018-09-23 02:00:00 22.8 4 Oeste 7 Oeste 0 999.2 0.7 48
2018-09-23 01:00:00 23.9 4 Sur 15 Noroeste 0 999.1 0.8 46
2018-09-23 00:00:00 25.7 3 Sudeste 6 Sudeste 0 998.8 0.9 39
2018-09-22 23:00:00 27.4 3 Este 3 Este 0 998.5 0.8 37
2018-09-22 22:00:00 29 4 Oeste 6 Oeste 0 998.3 0.8 33
2018-09-22 21:00:00 31.1 3 Oeste 7 Norte 0 997.9 0.4 34
2018-09-22 20:00:00 33.9 5 Norte 14 Nordeste 0 997.7 -0.3 23
2018-09-22 19:00:00 35.7 12 Nordeste 20 Nordeste 0 997.5 -0.9 19
2018-09-22 18:00:00 36.2 9 Norte 20 Nordeste 0 997.5 -1.4 21
2018-09-22 17:00:00 36.6 10 Este 20 Nordeste 0 998 -1.6 22
2018-09-22 16:00:00 35.7 9 Norte 26 Norte 0 998.4 -1.8 24
2018-09-22 15:00:00 35.2 9 Nordeste 19 Este 0 998.9 -1.4 26
2018-09-22 14:00:00 33.5 8 Este 15 Este 0 999.6 -0.5 29
2018-09-22 13:00:00 30.7 8 Nordeste 14 Este 0 1000.2 0.4 35
2018-09-22 12:00:00 27.6 8 Nordeste 14 Este 0 1000.3 0.9 44
2018-09-22 11:00:00 24.1 5 Este 9 Este 0 1000.1 1.3 56
2018-09-22 10:00:00 21.4 4 Este 7 Este 0 999.8 1.4 65
2018-09-22 09:00:00 18.2 0 Calma 4 Oeste 0 999.4 1.3 79
2018-09-22 08:00:00 18.3 3 Oeste 6 Oeste 0 998.8 1 78
2018-09-22 07:00:00 19.1 4 Sudoeste 9 Oeste 0 998.4 0.6 75
2018-09-22 06:00:00 19.7 5 Oeste 12 Sudoeste 0 998.1 0.2 73
2018-09-22 05:00:00 20.4 5 Oeste 13 Oeste 0 997.8 -0.1 69
2018-09-22 04:00:00 21.3 8 Oeste 13 Oeste 0 997.8 -0.1 65
2018-09-22 03:00:00 22.2 6 Oeste 9 Oeste 0 997.9 0.3 56
2018-09-22 02:00:00 23.1 5 Sudoeste 10 Oeste 0 997.9 0.8 52
2018-09-22 01:00:00 24.2 8 Oeste 15 Oeste 0 997.9 1.2 47
2018-09-22 00:00:00 25.3 7 Oeste 12 Oeste 0 997.6 1.8 42
2018-09-21 23:00:00 26.3 6 Oeste 15 Oeste 0 997.1 1.5 38
2018-09-21 22:00:00 27.1 10 Oeste 14 Oeste 0 996.7 1.3 40
2018-09-21 21:00:00 29.4 3 Oeste 5 Noroeste 0 995.8 0.4 36
2018-09-21 20:00:00 31.7 5 Noroeste 14 Noroeste 0 995.6 0 27
2018-09-21 19:00:00 33.3 5 Noroeste 14 Noroeste 0 995.4 -0.6 23
2018-09-21 18:00:00 34.3 6 Sur 12 Noroeste 0 995.4 -1.3 22
2018-09-21 17:00:00 34.4 4 Sudoeste 17 Sudoeste 0 995.6 -1.7 22
2018-09-21 16:00:00 34.1 5 Oeste 14 Oeste 0 996 -2 21
2018-09-21 15:00:00 33 5 Oeste 13 Oeste 0 996.7 -1.5 24
2018-09-21 14:00:00 31.4 4 Este 10 Este 0 997.3 -0.9 27
2018-09-21 13:00:00 28.3 5 Norte 15 Norte 0 998 0.3 33
2018-09-21 12:00:00 25.8 4 Sur 8 Sudoeste 0 998.2 1 43
2018-09-21 11:00:00 22 5 Noroeste 12 Noroeste 0 998.2 1.5 57
2018-09-21 10:00:00 19.1 6 Oeste 16 Noroeste 0 997.7 1.5 74
2018-09-21 09:00:00 17 8 Oeste 14 Oeste 0 997.2 0.9 80
2018-09-21 08:00:00 17.4 4 Oeste 8 Oeste 0 996.7 0.5 74
2018-09-21 07:00:00 17.8 4 Oeste 17 Oeste 0 996.2 0.4 75
2018-09-21 06:00:00 18 12 Oeste 17 Noroeste 0 996.3 0.1 73
2018-09-21 05:00:00 19 8 Oeste 13 Oeste 0 996.2 0 65
2018-09-21 04:00:00 20.2 9 Oeste 19 Oeste 0 995.8 -0.3 60
2018-09-21 03:00:00 20.8 8 Oeste 17 Oeste 0 996.2 0.3 59
2018-09-21 02:00:00 21.6 9 Oeste 18 Noroeste 0 996.2 0.5 58
2018-09-21 01:00:00 23.2 8 Oeste 18 Noroeste 0 996.1 0.9 51
2018-09-21 00:00:00 24.5 9 Oeste 18 Oeste 0 995.9 1.2 42
2018-09-20 23:00:00 25.7 12 Oeste 19 Oeste 0 995.7 1.4 35
2018-09-20 22:00:00 27.1 13 Oeste 20 Oeste 0 995.2 1.2 35
2018-09-20 21:00:00 28.8 12 Oeste 23 Noroeste 0 994.7 0.5 34
2018-09-20 20:00:00 31.8 16 Oeste 26 Oeste 0 994.3 -0.6 28
2018-09-20 19:00:00 34.2 6 Oeste 16 Noroeste 0 994 -1.4 24
2018-09-20 18:00:00 34.6 9 Oeste 19 Noroeste 0 994.2 -1.9 24
2018-09-20 17:00:00 34.6 8 Oeste 18 Noroeste 0 994.9 -2 24
2018-09-20 16:00:00 34.3 6 Sudoeste 15 Noroeste 0 995.4 -2.1 25
2018-09-20 15:00:00 33.2 8 Oeste 15 Noroeste 0 996.1 -1.8 25
2018-09-20 14:00:00 31.8 5 Oeste 11 Oeste 0 996.9 -1 31
2018-09-20 13:00:00 29.3 4 Oeste 8 Noroeste 0 997.5 0.1 38
2018-09-20 12:00:00 26.7 4 Sudoeste 9 Noroeste 0 997.9 0.6 45
2018-09-20 11:00:00 23.7 4 Oeste 8 Sur 0 997.9 1 51
2018-09-20 10:00:00 21.2 3 Oeste 6 Oeste 0 997.4 0.7 64
2018-09-20 09:00:00 18.8 2 Sudeste 10 Noroeste 0 997.3 0.6 73
2018-09-20 08:00:00 18.1 7 Oeste 11 Noroeste 0 996.9 0 75
2018-09-20 07:00:00 19.5 5 Oeste 13 Sudoeste 0 996.7 -0.3 68
2018-09-20 06:00:00 19.3 9 Oeste 15 Oeste 0 996.7 -0.4 70
2018-09-20 05:00:00 20.7 5 Oeste 13 Oeste 0 996.9 -0.4 62
2018-09-20 04:00:00 21.5 5 Sudoeste 9 Sudoeste 0 997 -0.1 56
2018-09-20 03:00:00 22.4 5 Sudoeste 9 Oeste 0 997.1 -0.1 51
2018-09-20 02:00:00 23.2 3 Sudoeste 10 Sudoeste 0 997.3 0.2 45
2018-09-20 01:00:00 24.5 5 Oeste 10 Oeste 0 997.1 0.4 41
2018-09-20 00:00:00 25.5 7 Oeste 11 Noroeste 0 997.2 1.1 40
2018-09-19 23:00:00 26.2 6 Oeste 10 Oeste 0 997.1 1 40
2018-09-19 22:00:00 28 4 Oeste 11 Oeste 0 996.7 0.7 41
2018-09-19 21:00:00 29.5 0 Calma 6 Norte 0 996.1 0.1 37
2018-09-19 20:00:00 31.7 5 Norte 13 Noroeste 0 996.1 -0.3 29
2018-09-19 19:00:00 33 9 Norte 16 Norte 0 996 -0.8 27
2018-09-19 18:00:00 34 6 Noroeste 14 Noroeste 0 996 -1.4 25
2018-09-19 17:00:00 34.2 6 Oeste 16 Noroeste 0 996.4 -1.3 25
2018-09-19 16:00:00 33.7 6 Oeste 19 Noroeste 0 996.8 -1.6 24
2018-09-19 15:00:00 32.5 8 Noroeste 18 Oeste 0 997.4 -1.3 28
2018-09-19 14:00:00 31.8 4 Sudoeste 11 Oeste 0 997.7 -0.7 31
2018-09-19 13:00:00 29.2 4 Sudoeste 9 Sudoeste 0 998.4 0.3 38
2018-09-19 12:00:00 25.9 3 Oeste 7 Oeste 0 998.7 1.1 48
2018-09-19 11:00:00 22.8 3 Sudoeste 6 Noroeste 0 998.4 1.2 61
2018-09-19 10:00:00 19.5 0 Calma 6 Oeste 0 998.1 1.4 77
2018-09-19 09:00:00 17.2 4 Noroeste 9 Oeste 0 997.6 1.3 88
2018-09-19 08:00:00 17.6 6 Oeste 10 Oeste 0 997.2 1.1 85
2018-09-19 07:00:00 17.9 5 Oeste 9 Oeste 0 996.7 0.4 82
2018-09-19 06:00:00 19.1 4 Oeste 9 Oeste 0 996.3 -0.2 74
2018-09-19 05:00:00 19.9 4 Sudoeste 7 Sudoeste 0 996.1 -0.1 68
2018-09-19 04:00:00 20.6 5 Oeste 10 Oeste 0 996.3 0.1 65
2018-09-19 03:00:00 21.1 3 Sudoeste 9 Noroeste 0 996.5 0.6 63
2018-09-19 02:00:00 22.1 5 Oeste 9 Oeste 0 996.2 0.4 58
2018-09-19 01:00:00 23 4 Oeste 14 Oeste 0 996.2 1 52
2018-09-19 00:00:00 24.1 8 Oeste 15 Oeste 0 995.9 1.7 46
2018-09-18 23:00:00 25.1 10 Oeste 15 Oeste 0 995.8 2.3 45
2018-09-18 22:00:00 26.5 8 Oeste 15 Oeste 0 995.2 2.1 42
2018-09-18 21:00:00 27.9 9 Oeste 16 Oeste 0 994.2 1 39
2018-09-18 20:00:00 30.3 14 Oeste 26 Noroeste 0 993.5 0.2 33
2018-09-18 19:00:00 32.2 17 Oeste 27 Noroeste 0 993.1 -0.5 30
2018-09-18 18:00:00 32.8 14 Oeste 23 Noroeste 0 993.2 -0.9 29
2018-09-18 17:00:00 33 10 Oeste 24 Noroeste 0 993.3 -1.3 29
2018-09-18 16:00:00 32.5 12 Noroeste 23 Oeste 0 993.6 -1.2 31
2018-09-18 15:00:00 31.4 8 Noroeste 18 Oeste 0 994.1 -0.8 35
2018-09-18 14:00:00 30.4 7 Oeste 16 Noroeste 0 994.6 -0.5 37
2018-09-18 13:00:00 28.9 6 Oeste 15 Noroeste 0 994.8 0 40
2018-09-18 12:00:00 27.2 4 Oeste 10 Noroeste 0 994.9 0.5 45
2018-09-18 11:00:00 24.5 5 Oeste 11 Oeste 0 995.1 1.4 53
2018-09-18 10:00:00 22 6 Oeste 10 Oeste 0 994.8 1.7 59
2018-09-18 09:00:00 19.5 5 Sur 8 Sur 0 994.4 1.6 76
2018-09-18 08:00:00 18.7 5 Sudeste 9 Este 0 993.7 1 82
2018-09-18 07:00:00 19 2 Nordeste 6 Noroeste 0 993.1 0.3 77
2018-09-18 06:00:00 19.6 4 Noroeste 7 Oeste 0 992.8 -0.2 76
2018-09-18 05:00:00 21.2 3 Sudoeste 13 Sur 0 992.7 -0.3 69
2018-09-18 04:00:00 21.9 3 Sudoeste 13 Sur 0 992.8 -0.2 67
2018-09-18 03:00:00 22 5 Sudoeste 12 Sur 0 993 0.1 70
2018-09-18 02:00:00 22 3 Sudeste 8 Sudeste 0 993 0.3 69
2018-09-18 01:00:00 23.1 4 Sudeste 9 Sur 0 993 0.8 66
2018-09-18 00:00:00 23.7 4 Sudeste 8 Nordeste 0 992.9 1.2 64
2018-09-17 23:00:00 25.5 3 Sudoeste 13 Sudoeste 0 992.7 1.2 58
2018-09-17 22:00:00 25.8 6 Sudeste 17 Sudeste 0 992.2 1.4 52
2018-09-17 21:00:00 26.8 4 Sur 20 Noroeste 0 991.7 0.4 48
2018-09-17 20:00:00 28.5 12 Noroeste 24 Noroeste 0 991.5 -0.4 41
2018-09-17 19:00:00 30.3 12 Sur 31 Sur 0 990.8 -1.2 36
2018-09-17 18:00:00 31.6 17 Sur 32 Sur 0 991.3 -1.5 31
2018-09-17 17:00:00 30.4 19 Sur 40 Sur 0 991.9 -1.9 38
2018-09-17 16:00:00 33.5 5 Noroeste 21 Nordeste 0 992 -2.4 33
2018-09-17 15:00:00 32.6 7 Norte 14 Sudoeste 0 992.8 -2.1 36
2018-09-17 14:00:00 32.2 6 Sur 14 Sur 0 993.8 -1.4 36
2018-09-17 13:00:00 30 5 Noroeste 11 Este 0 994.4 -0.7 44
2018-09-17 12:00:00 27.3 4 Oeste 10 Este 0 994.9 0 51
2018-09-17 11:00:00 24.3 4 Noroeste 8 Norte 0 995.2 0.6 60
2018-09-17 10:00:00 22.2 5 Oeste 8 Oeste 0 995.1 0.8 72
2018-09-17 09:00:00 19.1 5 Norte 11 Sudeste 0 994.9 0.6 82
2018-09-17 08:00:00 20 7 Sur 12 Sur 0 994.6 0.2 77
2018-09-17 07:00:00 20 0 Calma 6 Sudoeste 0 994.3 -0.3 77
2018-09-17 06:00:00 20.2 4 Sudoeste 5 Sudoeste 0 994.3 -0.5 79
2018-09-17 05:00:00 20.3 0 Calma 4 Nordeste 0 994.4 -0.5 74
2018-09-17 04:00:00 20.8 2 Norte 9 Oeste 0 994.6 -0.5 72
2018-09-17 03:00:00 21.4 6 Noroeste 9 Noroeste 0 994.8 -0.5 67
2018-09-17 02:00:00 23.5 3 Sur 10 Sur 0 994.9 -0.5 54
2018-09-17 01:00:00 24.1 6 Sur 8 Sur 0 995.1 -0.3 53
2018-09-17 00:00:00 24.8 0 Calma 4 Norte 0 995.3 0.3 53
2018-09-16 23:00:00 25.6 3 Nordeste 6 Norte 0 995.4 0.5 51
2018-09-16 22:00:00 27 2 Norte 6 Norte 0 995.4 0.5 51
2018-09-16 21:00:00 29.3 4 Norte 6 Norte 0 995 0 42
2018-09-16 20:00:00 31.5 5 Nordeste 13 Nordeste 0 994.9 -0.3 34
2018-09-16 19:00:00 32.4 8 Nordeste 17 Nordeste 0 994.9 -1 32
2018-09-16 18:00:00 32.9 14 Nordeste 22 Nordeste 0 995 -1.7 34
2018-09-16 17:00:00 33.2 7 Este 23 Nordeste 0 995.2 -2.5 34
2018-09-16 16:00:00 32.8 11 Nordeste 21 Nordeste 0 995.9 -2.5 36
2018-09-16 15:00:00 31.1 11 Norte 22 Nordeste 0 996.7 -1.9 42
2018-09-16 14:00:00 29.9 6 Nordeste 16 Nordeste 0 997.7 -0.9 44
2018-09-16 13:00:00 28.2 8 Nordeste 14 Nordeste 0 998.4 0.2 47
2018-09-16 12:00:00 25.9 5 Noroeste 12 Norte 0 998.6 0.4 55
2018-09-16 11:00:00 23.7 4 Nordeste 10 Sudeste 0 998.6 1.1 63
2018-09-16 10:00:00 21.7 8 Este 10 Este 0 998.2 1.2 73
2018-09-16 09:00:00 19.2 4 Este 6 Sudeste 0 998.2 1.6 83
2018-09-16 08:00:00 18.7 4 Sudeste 8 Este 0 997.5 1 85
2018-09-16 07:00:00 18.9 5 Este 9 Este 0 997 0.4 86
2018-09-16 06:00:00 19.6 6 Nordeste 10 Nordeste 0 996.6 -0.2 82
2018-09-16 05:00:00 20.3 4 Nordeste 10 Sur 0 996.5 -0.1 79
2018-09-16 04:00:00 21.6 6 Sur 10 Sur 0 996.6 -0.2 72
2018-09-16 03:00:00 21.8 7 Este 11 Sudoeste 0 996.8 0 73
2018-09-16 02:00:00 24.2 4 Sudoeste 10 Sudoeste 0 996.6 0.2 58
2018-09-16 01:00:00 25.3 5 Sudoeste 11 Sur 0 996.8 1 53
2018-09-16 00:00:00 25.9 6 Sudoeste 12 Sur 0 996.8 1.7 53
2018-09-15 23:00:00 26.3 5 Sudeste 13 Noroeste 0 996.4 1.5 55
2018-09-15 22:00:00 27.5 4 Sudoeste 10 Sur 0 995.8 1.2 48
2018-09-15 21:00:00 29 5 Sur 9 Sur 0 995.1 0.5 44
2018-09-15 20:00:00 31.3 3 Sur 7 Sudeste 0 994.9 0 37
2018-09-15 19:00:00 32.4 4 Este 18 Noroeste 0 994.6 -0.9 32
2018-09-15 18:00:00 32 8 Norte 15 Noroeste 0 994.6 -1.6 33
2018-09-15 17:00:00 31.9 6 Sudoeste 19 Noroeste 0 994.9 -1.9 37
2018-09-15 16:00:00 30.4 7 Noroeste 18 Noroeste 0 995.5 -1.6 40
2018-09-15 15:00:00 28.7 10 Noroeste 23 Noroeste 0 996.2 -1.5 48
2018-09-15 14:00:00 27.7 3 Nordeste 15 Noroeste 0 996.8 -0.7 50
2018-09-15 13:00:00 26.6 5 Oeste 10 Oeste 0 997.1 -0.1 53
2018-09-15 12:00:00 24.7 4 Noroeste 11 Noroeste 0 997.7 0.9 59
2018-09-15 11:00:00 23 3 Sudoeste 7 Noroeste 0 997.5 1.6 73
2018-09-15 10:00:00 20.4 5 Noroeste 8 Nordeste 0 997.2 1.8 88
2018-09-15 09:00:00 19 6 Nordeste 8 Nordeste 0 996.8 1.7 93
2018-09-15 08:00:00 19 4 Sudeste 9 Este 0 995.9 1.4 93
2018-09-15 07:00:00 19 8 Este 12 Este 0 995.4 0.3 93
2018-09-15 06:00:00 20 4 Este 15 Este 0 995.1 -0.1 91
2018-09-15 05:00:00 20.3 5 Oeste 11 Oeste 0 994.5 -1 91
2018-09-15 04:00:00 20.1 8 Sudeste 16 Este 0 995.1 -1.9 90
2018-09-15 03:00:00 20 3 Nordeste 18 Oeste 0 995.2 -1.7 90
2018-09-15 02:00:00 20 9 Oeste 26 Noroeste 0.2 995.5 -1.9 89
2018-09-15 01:00:00 20.5 7 Oeste 32 Sudeste 1.4 997 -1.2 83
2018-09-15 00:00:00 20.9 15 Sur 37 Sur 0 996.9 2.2 79
2018-09-14 23:00:00 20.5 10 Sudoeste 34 Sur 2.2 997.4 4.5 83
2018-09-14 22:00:00 22.7 15 Sur 44 Sur 0.8 998.2 5.7 72
2018-09-14 21:00:00 27.5 27 Sudeste 50 Sudeste 0 994.7 2 42
2018-09-14 20:00:00 32.5 6 Norte 23 Norte 0 992.9 0.1 26
2018-09-14 19:00:00 33.4 16 Norte 32 Norte 0 992.5 -0.9 26
2018-09-14 18:00:00 34.4 24 Noroeste 32 Noroeste 0 992.7 -1.8 25
2018-09-14 17:00:00 35.9 8 Noroeste 19 Oeste 0 992.8 -2.4 22
2018-09-14 16:00:00 35.4 9 Oeste 21 Noroeste 0 993.4 -2.3 23
2018-09-14 15:00:00 34.5 8 Oeste 15 Noroeste 0 994.5 -1.4 26
2018-09-14 14:00:00 31.8 8 Noroeste 17 Noroeste 0 995.2 -0.6 27
2018-09-14 13:00:00 30.7 7 Noroeste 17 Noroeste 0 995.7 0.4 31
2018-09-14 12:00:00 28 9 Oeste 19 Noroeste 0 995.9 0.9 38
2018-09-14 11:00:00 25.7 9 Oeste 17 Noroeste 0 995.8 1.2 42
2018-09-14 10:00:00 23.5 6 Oeste 13 Oeste 0 995.3 0.9 47
2018-09-14 09:00:00 20.2 3 Oeste 5 Oeste 0 995 0.8 56
2018-09-14 08:00:00 19.2 0 Calma 6 Oeste 0 994.6 0.3 57
2018-09-14 07:00:00 20.1 0 Calma 9 Oeste 0 994.4 -0.2 55
2018-09-14 06:00:00 21.5 4 Oeste 8 Oeste 0 994.2 -0.7 47
2018-09-14 05:00:00 22.3 4 Oeste 14 Oeste 0 994.3 -0.8 45
2018-09-14 04:00:00 23.2 5 Sudoeste 14 Oeste 0 994.6 -0.5 44
2018-09-14 03:00:00 24.3 7 Sudoeste 17 Oeste 0 994.9 0 41
2018-09-14 02:00:00 25.4 6 Oeste 14 Oeste 0 995.1 0.6 39
2018-09-14 01:00:00 25.7 6 Oeste 15 Oeste 0 995.1 1.2 40
2018-09-14 00:00:00 27 12 Oeste 19 Oeste 0 994.9 1.5 38
2018-09-13 23:00:00 29.1 7 Sudoeste 19 Oeste 0 994.5 1 36
2018-09-13 22:00:00 29.8 5 Sudoeste 9 Sudoeste 0 993.9 0.3 30
2018-09-13 21:00:00 32 5 Sudoeste 6 Sudoeste 0 993.4 -0.5 29
2018-09-13 20:00:00 34.7 0 Calma 9 Oeste 0 993.5 -0.8 23
2018-09-13 19:00:00 35.6 7 Oeste 21 Noroeste 0 993.6 -1.4 21
2018-09-13 18:00:00 35.5 6 Norte 19 Noroeste 0 993.9 -1.9 23
2018-09-13 17:00:00 35.3 10 Noroeste 19 Noroeste 0 994.3 -2.3 25
2018-09-13 16:00:00 35.4 8 Nordeste 18 Noroeste 0 995 -2.3 26
2018-09-13 15:00:00 34.8 7 Noroeste 15 Noroeste 0 995.8 -1.7 28
2018-09-13 14:00:00 33.3 5 Sudoeste 12 Sudoeste 0 996.6 -0.9 32
2018-09-13 13:00:00 30.9 5 Oeste 12 Noroeste 0 997.3 0 40
2018-09-13 12:00:00 28.1 4 Oeste 12 Noroeste 0 997.5 0.3 49
2018-09-13 11:00:00 25.3 5 Oeste 10 Noroeste 0 997.5 0.7 62
2018-09-13 10:00:00 22.5 3 Oeste 5 Noroeste 0 997.3 0.7 73
2018-09-13 09:00:00 19.2 2 Este 5 Este 0 997.2 0.7 85
2018-09-13 08:00:00 19.1 2 Este 4 Sudeste 0 996.8 0.1 83
2018-09-13 07:00:00 20 2 Sur 5 Noroeste 0 996.6 -0.3 81
2018-09-13 06:00:00 20.8 4 Noroeste 8 Oeste 0 996.5 -0.6 77
2018-09-13 05:00:00 21.8 3 Sudoeste 8 Oeste 0 996.7 -0.5 74
2018-09-13 04:00:00 22.4 5 Noroeste 11 Oeste 0 996.9 -0.5 69
2018-09-13 03:00:00 24 5 Oeste 13 Sudoeste 0 997.1 -0.5 63
2018-09-13 02:00:00 25.2 5 Sudoeste 17 Sur 0 997.2 0.1 57
2018-09-13 01:00:00 26.7 7 Sudoeste 18 Sudoeste 0 997.4 0.6 54
2018-09-13 00:00:00 27.3 10 Sur 17 Sur 0 997.6 1.3 47
2018-09-12 23:00:00 27.2 4 Sudoeste 6 Sur 0 997.1 0.9 35
2018-09-12 22:00:00 28.3 4 Sudeste 7 Sudeste 0 996.8 0.2 33
2018-09-12 21:00:00 30.9 4 Sudoeste 7 Oeste 0 996.3 -0.6 31
2018-09-12 20:00:00 33.3 4 Norte 11 Norte 0 996.2 -0.9 24
2018-09-12 19:00:00 34.6 3 Norte 12 Este 0 996.6 -1.1 21
2018-09-12 18:00:00 34.9 5 Nordeste 14 Nordeste 0 996.9 -1.7 22
2018-09-12 17:00:00 34.5 9 Nordeste 15 Este 0 997.1 -2.2 26
2018-09-12 16:00:00 33.5 8 Norte 18 Noroeste 0 997.7 -2.3 31
2018-09-12 15:00:00 32.8 7 Noroeste 19 Este 0 998.6 -1.6 33
2018-09-12 14:00:00 32.3 5 Sudeste 17 Este 0 999.3 -0.7 36
2018-09-12 13:00:00 30.6 3 Sudeste 12 Este 0 1000 0.4 40
2018-09-12 12:00:00 28.4 5 Noroeste 13 Nordeste 0 1000.2 1.1 45
2018-09-12 11:00:00 25.7 9 Nordeste 15 Nordeste 0 1000 1.5 51
2018-09-12 10:00:00 23.2 4 Este 6 Este 0 999.6 1.5 55
2018-09-12 09:00:00 19.9 4 Sur 6 Sudeste 0 999.1 1.1 64
2018-09-12 08:00:00 19 4 Sudeste 6 Sudeste 0 998.5 0.8 70
2018-09-12 07:00:00 19 4 Noroeste 7 Noroeste 0 998.1 0.8 70
2018-09-12 06:00:00 19.3 0 Calma 6 Noroeste 0 998 0.6 68
2018-09-12 05:00:00 19.4 5 Noroeste 12 Norte 0 997.7 0.4 64
2018-09-12 04:00:00 21.8 5 Sur 9 Sur 0 997.3 0.1 50
2018-09-12 03:00:00 20.8 4 Sudeste 7 Sur 0 997.4 0.4 62
2018-09-12 02:00:00 21.7 4 Este 6 Sur 0 997.3 0.6 57
2018-09-12 01:00:00 23.1 3 Sur 6 Sur 0 997.2 0.9 51
2018-09-12 00:00:00 24 3 Nordeste 5 Nordeste 0 997 1.2 53
2018-09-11 23:00:00 25.4 3 Nordeste 4 Sudeste 0 996.7 1.2 44
2018-09-11 22:00:00 27.1 4 Sudeste 5 Sudeste 0 996.3 0.8 39
2018-09-11 21:00:00 29.8 4 Sudeste 9 Este 0 995.8 0.1 34
2018-09-11 20:00:00 32.1 8 Este 20 Este 0 995.5 -0.8 28
2018-09-11 19:00:00 33.2 12 Este 18 Este 0 995.5 -1.6 28
2018-09-11 18:00:00 33.8 10 Este 20 Este 0 995.7 -2.3 28
2018-09-11 17:00:00 33.5 10 Nordeste 22 Este 0 996.3 -2.3 27
2018-09-11 16:00:00 32.8 13 Este 23 Este 0 997.1 -2.1 33
2018-09-11 15:00:00 31.8 13 Este 26 Este 0 998 -1.7 37
2018-09-11 14:00:00 31.6 15 Este 29 Este 0 998.6 -1.1 38
2018-09-11 13:00:00 29.9 17 Este 30 Este 0 999.2 -0.2 42
2018-09-11 12:00:00 28.1 18 Este 31 Nordeste 0 999.7 0.6 47
2018-09-11 11:00:00 26.3 17 Este 25 Este 0 999.7 1 51
2018-09-11 10:00:00 23.2 9 Este 14 Este 0 999.4 1 62
2018-09-11 09:00:00 19.3 3 Este 6 Nordeste 0 999.1 0.9 69
2018-09-11 08:00:00 18.5 3 Sudeste 6 Sur 0 998.7 0.7 69
2018-09-11 07:00:00 18.7 4 Noroeste 5 Sur 0 998.4 0.5 71
2018-09-11 06:00:00 19 3 Oeste 5 Noroeste 0 998.2 0.2 70
2018-09-11 05:00:00 20 4 Nordeste 8 Este 0 998 -0.2 63
2018-09-11 04:00:00 20.5 5 Este 9 Este 0 997.9 -0.4 61
2018-09-11 03:00:00 21 7 Este 9 Este 0 998 -0.3 59
2018-09-11 02:00:00 22.2 6 Este 10 Este 0 998.2 0.2 53
2018-09-11 01:00:00 22.9 6 Este 9 Este 0 998.3 1 49
2018-09-11 00:00:00 23.9 6 Este 9 Este 0 998.3 1.6 49
2018-09-10 23:00:00 25.2 0 Calma 6 Noroeste 0 998 1.5 43
2018-09-10 22:00:00 26.9 3 Sudeste 9 Este 0 997.3 1 38
2018-09-10 21:00:00 29.3 6 Este 10 Este 0 996.7 0.1 32
2018-09-10 20:00:00 32.2 7 Este 13 Sudeste 0 996.5 -0.7 25
2018-09-10 19:00:00 33.5 7 Este 16 Este 0 996.3 -1.7 23
2018-09-10 18:00:00 33.1 7 Este 21 Este 0 996.6 -2.2 25
2018-09-10 17:00:00 33.3 11 Este 24 Este 0 997.2 -2.3 25
2018-09-10 16:00:00 33 12 Este 22 Este 0 998 -2.1 27
2018-09-10 15:00:00 31.5 9 Nordeste 23 Este 0 998.8 -1.3 30
2018-09-10 14:00:00 30.3 9 Nordeste 27 Este 0 999.5 -0.4 31
2018-09-10 13:00:00 29.1 15 Este 26 Este 0 1000.1 0.5 36
2018-09-10 12:00:00 26 11 Este 17 Nordeste 0 1000.1 0.9 43
2018-09-10 11:00:00 24.1 12 Este 18 Este 0 999.9 1.3 50
2018-09-10 10:00:00 20.2 12 Este 15 Este 0 999.6 1.1 65
2018-09-10 09:00:00 17.2 3 Este 5 Este 0 999.2 0.9 75
2018-09-10 08:00:00 15.9 3 Este 9 Sudeste 0 998.6 0.3 83
2018-09-10 07:00:00 15.8 8 Nordeste 10 Nordeste 0 998.5 0.3 83
2018-09-10 06:00:00 17 6 Este 13 Este 0 998.3 0 77
2018-09-10 05:00:00 17.9 5 Sudeste 8 Sudeste 0 998.3 0 76
2018-09-10 04:00:00 18 3 Noroeste 7 Oeste 0 998.2 0.1 77
2018-09-10 03:00:00 19.1 3 Noroeste 8 Noroeste 0 998.3 0.5 69
2018-09-10 02:00:00 20.4 2 Norte 5 Este 0 998.3 0.5 62
2018-09-10 01:00:00 21.4 0 Calma 7 Este 0 998.1 0.9 62
2018-09-10 00:00:00 22.6 2 Este 5 Este 0 997.8 1.6 55
2018-09-09 23:00:00 23.8 0 Calma 10 Noroeste 0 997.8 2.3 53
2018-09-09 22:00:00 24.3 5 Norte 8 Sur 0 997.2 2 50
2018-09-09 21:00:00 26.3 5 Sudeste 15 Nordeste 0 996.2 1.1 43
2018-09-09 20:00:00 27.5 11 Nordeste 24 Nordeste 0 995.5 0.3 40
2018-09-09 19:00:00 30.8 13 Este 23 Este 0 995.2 -0.8 33
2018-09-09 18:00:00 31.9 10 Este 21 Este 0 995.1 -1.5 31
2018-09-09 17:00:00 32.1 5 Este 26 Este 0 995.2 -2 30
2018-09-09 16:00:00 30.6 8 Norte 31 Este 0 996 -1.9 34
2018-09-09 15:00:00 29.7 6 Nordeste 17 Este 0 996.6 -1.7 35
2018-09-09 14:00:00 28.4 5 Este 18 Este 0 997.2 -0.7 38
2018-09-09 13:00:00 26.7 5 Este 14 Nordeste 0 997.9 0.1 43
2018-09-09 12:00:00 24.3 8 Nordeste 18 Nordeste 0 998.3 0.5 57
2018-09-09 11:00:00 22.4 4 Norte 9 Nordeste 0 997.9 0.8 61
2018-09-09 10:00:00 20.1 5 Oeste 8 Oeste 0 997.8 1.4 72
2018-09-09 09:00:00 18.4 3 Este 8 Noroeste 0 997.8 1.3 78
2018-09-09 08:00:00 17.9 5 Noroeste 8 Oeste 0 997.1 0.7 76
2018-09-09 07:00:00 18.6 3 Sur 10 Noroeste 0 996.4 0.2 74
2018-09-09 06:00:00 19.3 5 Oeste 13 Oeste 0 996.5 0.2 72
2018-09-09 05:00:00 19.7 5 Sudoeste 9 Oeste 0 996.4 -0.2 67
2018-09-09 04:00:00 20 4 Sudoeste 12 Oeste 0 996.2 -0.1 65
2018-09-09 03:00:00 20.2 6 Oeste 14 Oeste 0 996.3 0.3 63
2018-09-09 02:00:00 20 4 Sudoeste 11 Sudoeste 0 996.6 1.2 59
2018-09-09 01:00:00 21.4 5 Oeste 17 Oeste 0 996.3 1.8 56
2018-09-09 00:00:00 22.6 9 Sudoeste 22 Sur 0 996 2.5 42
2018-09-08 23:00:00 22.3 5 Sudeste 8 Sur 0 995.4 2.5 42
2018-09-08 22:00:00 23.6 4 Sudoeste 10 Oeste 0 994.5 1.9 39
2018-09-08 21:00:00 24.8 6 Oeste 21 Noroeste 0 993.5 1 38
2018-09-08 20:00:00 26.8 17 Oeste 27 Noroeste 0 992.9 0.2 34
2018-09-08 19:00:00 28.7 10 Oeste 24 Oeste 0 992.6 -0.7 32
2018-09-08 18:00:00 28.7 12 Noroeste 23 Noroeste 0 992.5 -1.2 34
2018-09-08 17:00:00 28.1 8 Oeste 26 Oeste 0 992.7 -1.3 37
2018-09-08 16:00:00 27.9 9 Oeste 23 Noroeste 0 993.3 -1 38
2018-09-08 15:00:00 27.4 13 Oeste 23 Noroeste 0 993.7 -0.9 42
2018-09-08 14:00:00 26.9 6 Sudoeste 15 Sudoeste 0 994 -0.3 44
2018-09-08 13:00:00 25.4 8 Oeste 18 Noroeste 0 994.3 0.3 48
2018-09-08 12:00:00 22.7 12 Noroeste 24 Oeste 0 994.6 1 60
2018-09-08 11:00:00 21.1 9 Noroeste 15 Noroeste 0 994.3 1.5 65
2018-09-08 10:00:00 19.9 4 Oeste 12 Oeste 0 994 1.6 71
2018-09-08 09:00:00 17.8 6 Oeste 12 Oeste 0 993.6 1.1 80
2018-09-08 08:00:00 16.5 5 Oeste 11 Oeste 0 992.8 0.3 84
2018-09-08 07:00:00 17.5 9 Oeste 12 Noroeste 0 992.4 0.2 76
2018-09-08 06:00:00 19.5 5 Oeste 10 Oeste 0 992.5 0.3 68
2018-09-08 05:00:00 19.8 4 Sudoeste 11 Sur 0 992.5 0.6 67
2018-09-08 04:00:00 20.2 4 Sur 9 Sur 0 992.2 0.2 63
2018-09-08 03:00:00 20.8 4 Sudoeste 12 Sudoeste 0 992.2 0.5 58
2018-09-08 02:00:00 21.5 4 Sudoeste 17 Oeste 0 991.9 0.9 51
2018-09-08 01:00:00 21.8 2 Sudeste 13 Oeste 0 992 1.6 45
2018-09-08 00:00:00 22.9 6 Oeste 14 Oeste 0 991.7 2 40
2018-09-07 23:00:00 23.7 3 Sudoeste 6 Sudoeste 0 991 1.9 43
2018-09-07 22:00:00 25.6 3 Sudoeste 15 Sudoeste 0 990.4 1.8 39
2018-09-07 21:00:00 27.8 7 Sudoeste 22 Sudoeste 0 989.7 1.2 28
2018-09-07 20:00:00 29.7 8 Sudoeste 22 Sudoeste 0 989.1 0.5 36
2018-09-07 19:00:00 30.5 8 Sudoeste 20 Oeste 0 988.6 -0.6 34
2018-09-07 18:00:00 31.9 6 Sudoeste 24 Este 0 988.5 -1.4 28
2018-09-07 17:00:00 31.7 10 Este 25 Nordeste 0 988.6 -2.1 28
2018-09-07 16:00:00 31.7 13 Nordeste 22 Nordeste 0 989.2 -2.4 30
2018-09-07 15:00:00 30 6 Nordeste 16 Nordeste 0 989.9 -2.2 35
2018-09-07 14:00:00 28 9 Nordeste 17 Nordeste 0 990.7 -1.2 41
2018-09-07 13:00:00 26.1 5 Este 15 Este 0 991.6 -0.3 47
2018-09-07 12:00:00 23.6 4 Norte 10 Norte 0 992.1 0.5 56
2018-09-07 11:00:00 21.3 3 Oeste 8 Noroeste 0 991.9 0.3 65
2018-09-07 10:00:00 18.7 4 Oeste 7 Oeste 0 991.9 0.7 76
2018-09-07 09:00:00 16.5 0 Calma 8 Sur 0 991.6 0.4 82
2018-09-07 08:00:00 16 4 Sur 8 Sudoeste 0 991.6 0.1 85
2018-09-07 07:00:00 16.6 5 Sudoeste 7 Sudoeste 0 991.2 -0.6 82
2018-09-07 06:00:00 17.1 3 Sudoeste 7 Sudoeste 0 991.2 -0.9 79
2018-09-07 05:00:00 17.7 3 Sudoeste 8 Sudoeste 0 991.5 -0.6 76
2018-09-07 04:00:00 18.5 2 Sudoeste 8 Oeste 0 991.8 -0.4 74
2018-09-07 03:00:00 19.4 6 Oeste 17 Oeste 0 992.1 0.1 70
2018-09-07 02:00:00 20.3 7 Oeste 14 Oeste 0 992.1 0 64
2018-09-07 01:00:00 21.2 7 Oeste 17 Oeste 0 992.2 0.6 57
2018-09-07 00:00:00 22.5 8 Oeste 17 Oeste 0 992 1 48
2018-09-06 23:00:00 22.7 4 Sudoeste 9 Oeste 0 992.1 1.2 36
2018-09-06 22:00:00 23.8 3 Sudoeste 7 Sudoeste 0 991.6 0.7 37
2018-09-06 21:00:00 26.1 3 Oeste 12 Oeste 0 991 -0.1 33
2018-09-06 20:00:00 28.7 7 Oeste 19 Noroeste 0 990.9 -0.6 27
2018-09-06 19:00:00 29.2 11 Noroeste 21 Noroeste 0 990.9 -1.5 24
2018-09-06 18:00:00 29.4 10 Noroeste 19 Noroeste 0 991.1 -2 24
2018-09-06 17:00:00 29.3 9 Noroeste 17 Noroeste 0 991.5 -2.2 28
2018-09-06 16:00:00 27.8 6 Oeste 18 Oeste 0 992.4 -1.9 36
2018-09-06 15:00:00 26.1 9 Noroeste 17 Noroeste 0 993.1 -1.5 43
2018-09-06 14:00:00 24.9 7 Oeste 15 Sudoeste 0 993.7 -0.8 46
2018-09-06 13:00:00 23.1 5 Oeste 17 Oeste 0 994.3 0.2 54
2018-09-06 12:00:00 21.1 4 Oeste 16 Oeste 0 994.6 0.6 62
2018-09-06 11:00:00 19.2 6 Oeste 13 Oeste 0 994.5 1 70
2018-09-06 10:00:00 18.2 5 Oeste 14 Oeste 0 994.1 0.9 74
2018-09-06 09:00:00 17.3 6 Sudoeste 14 Oeste 0 994 0.8 78
2018-09-06 08:00:00 17 9 Oeste 21 Oeste 0 993.5 0.4 81
2018-09-06 07:00:00 15.8 2 Sudoeste 9 Oeste 0 993.2 -0.1 88
2018-09-06 06:00:00 16.3 4 Sudoeste 12 Oeste 0 993.2 -0.4 86
2018-09-06 05:00:00 16.7 6 Oeste 14 Oeste 0 993.1 -0.5 85
2018-09-06 04:00:00 17.6 9 Oeste 16 Sudoeste 0 993.3 -0.2 82
2018-09-06 03:00:00 18.5 10 Oeste 18 Oeste 0 993.6 0.2 78
2018-09-06 02:00:00 19.1 13 Oeste 19 Oeste 0 993.6 0.3 75
2018-09-06 01:00:00 20.6 6 Oeste 17 Oeste 0 993.5 0.8 67
2018-09-06 00:00:00 21.1 13 Oeste 24 Oeste 0 993.4 1.2 65
2018-09-05 23:00:00 22.1 8 Oeste 15 Oeste 0 993.3 1.4 58
2018-09-05 22:00:00 22.9 6 Oeste 12 Oeste 0 992.7 0.8 54
2018-09-05 21:00:00 24 9 Oeste 25 Noroeste 0 992.2 0.1 49
2018-09-05 20:00:00 26.1 17 Noroeste 25 Noroeste 0 991.9 -0.4 45
2018-09-05 19:00:00 27.8 11 Oeste 24 Oeste 0 991.9 -0.8 38
2018-09-05 18:00:00 28 9 Sudoeste 23 Oeste 0 992.1 -1.2 37
2018-09-05 17:00:00 28 8 Oeste 22 Sudoeste 0 992.3 -1.5 36
2018-09-05 16:00:00 26.9 10 Sudoeste 26 Oeste 0 992.7 -1.5 40
2018-09-05 15:00:00 26.6 10 Oeste 22 Oeste 0 993.3 -1.1 43
2018-09-05 14:00:00 25.5 8 Oeste 26 Oeste 0 993.8 -0.6 50
2018-09-05 13:00:00 24.2 8 Sudoeste 19 Sudoeste 0 994.2 0.1 54
2018-09-05 12:00:00 23.2 8 Sudoeste 16 Oeste 0 994.4 0.8 62
2018-09-05 11:00:00 21.5 5 Sur 11 Sur 0 994.4 1.3 70
2018-09-05 10:00:00 21.1 5 Sudoeste 12 Sudoeste 0 994.1 1.4 72
2018-09-05 09:00:00 20.6 5 Sudoeste 12 Sudoeste 0 993.6 1.1 75
2018-09-05 08:00:00 20.5 4 Sudoeste 12 Sur 0 993.1 0.7 76
2018-09-05 07:00:00 20.3 4 Sur 8 Sur 0 992.7 0.4 77
2018-09-05 06:00:00 19.7 3 Sur 9 Oeste 0 992.5 0.1 79
2018-09-05 05:00:00 19.6 3 Sudoeste 8 Sudoeste 0 992.4 0 78
2018-09-05 04:00:00 20.3 5 Oeste 11 Oeste 0 992.3 0.3 73
2018-09-05 03:00:00 21 5 Oeste 12 Oeste 0 992.4 0.7 70
2018-09-05 02:00:00 20.9 6 Oeste 12 Oeste 0 992.4 1 70
2018-09-05 01:00:00 21.3 6 Oeste 14 Oeste 0 992 1.1 65
2018-09-05 00:00:00 22.2 9 Oeste 20 Oeste 0 991.7 1.4 61
2018-09-04 23:00:00 22.2 4 Sudoeste 9 Sur 0 991.4 1.2 53
2018-09-04 22:00:00 23.6 3 Sur 9 Oeste 0 990.9 0.6 49
2018-09-04 21:00:00 25.7 7 Oeste 18 Oeste 0 990.3 0 42
2018-09-04 20:00:00 26.8 11 Oeste 22 Oeste 0 990.2 -0.2 40
2018-09-04 19:00:00 26.9 10 Oeste 27 Sudoeste 0 990.3 -0.5 41
2018-09-04 18:00:00 28.1 14 Oeste 30 Sudoeste 0 990.3 -0.9 40
2018-09-04 17:00:00 27.7 9 Oeste 25 Oeste 0 990.4 -1 41
2018-09-04 16:00:00 27.6 12 Oeste 26 Noroeste 0 990.8 -1.2 43
2018-09-04 15:00:00 25.9 12 Noroeste 21 Noroeste 0 991.2 -1 48
2018-09-04 14:00:00 25.4 6 Sur 17 Sur 0 991.4 -0.8 47
2018-09-04 13:00:00 23.9 8 Sur 15 Sur 0 992 0 53
2018-09-04 12:00:00 23.1 4 Sur 9 Sudoeste 0 992.2 0.3 58
2018-09-04 11:00:00 21.3 3 Oeste 6 Oeste 0 992.2 0.9 66
2018-09-04 10:00:00 19.6 2 Sur 7 Noroeste 0 992 1 73
2018-09-04 09:00:00 18.1 3 Oeste 9 Sudoeste 0 991.9 0.9 79
2018-09-04 08:00:00 16.3 3 Oeste 10 Sur 0 991.3 0.5 83
2018-09-04 07:00:00 17.3 4 Sudoeste 12 Sur 0 991 0.1 78
2018-09-04 06:00:00 17.5 3 Sudoeste 12 Sudoeste 0 991 -0.1 77
2018-09-04 05:00:00 17.8 5 Sudoeste 9 Sur 0 990.8 -0.3 75
2018-09-04 04:00:00 18.8 5 Oeste 10 Oeste 0 990.9 -0.1 71
2018-09-04 03:00:00 19.8 4 Sudoeste 15 Sudoeste 0 991.1 0.6 67
2018-09-04 02:00:00 20.9 6 Sudoeste 19 Oeste 0 991.1 1.4 64
2018-09-04 01:00:00 22.1 10 Oeste 22 Sudoeste 0 991 1.8 59
2018-09-04 00:00:00 23.7 10 Oeste 21 Oeste 0 990.5 1.8 54
2018-09-03 23:00:00 24.8 5 Oeste 10 Oeste 0 989.7 0.9 48
2018-09-03 22:00:00 25.9 7 Sudoeste 11 Sudoeste 0 989.2 0.3 46
2018-09-03 21:00:00 27.6 5 Oeste 18 Sudoeste 0 988.7 -0.3 43
2018-09-03 20:00:00 29.2 8 Oeste 22 Sudoeste 0 988.8 -0.7 38
2018-09-03 19:00:00 30 9 Sudoeste 23 Oeste 0 988.9 -1.1 37
2018-09-03 18:00:00 30.2 8 Oeste 33 Oeste 0 989 -1.4 40
2018-09-03 17:00:00 30 8 Oeste 19 Sudoeste 0 989.5 -1.2 40
2018-09-03 16:00:00 29.5 9 Oeste 18 Oeste 0 990 -1.1 43
2018-09-03 15:00:00 28.5 8 Sudoeste 18 Oeste 0 990.4 -1 47
2018-09-03 14:00:00 26.1 6 Oeste 18 Noroeste 0 990.7 -0.7 55
2018-09-03 13:00:00 25.5 8 Oeste 21 Sudoeste 0 991.1 0.1 59
2018-09-03 12:00:00 24.6 8 Oeste 18 Oeste 0 991.4 0.5 65
2018-09-03 11:00:00 23.6 7 Sudoeste 17 Sudoeste 0 991.4 0.8 71
2018-09-03 10:00:00 22.2 7 Oeste 17 Oeste 0 991 0.8 79
2018-09-03 09:00:00 20.7 5 Oeste 11 Oeste 0 990.9 0.7 87
2018-09-03 08:00:00 21.3 5 Sudoeste 12 Oeste 0 990.6 0.4 85
2018-09-03 07:00:00 21.3 6 Oeste 12 Noroeste 0 990.2 0.2 85
2018-09-03 06:00:00 21.9 3 Oeste 9 Sudoeste 0 990.2 -0.1 82
2018-09-03 05:00:00 22.5 7 Sur 18 Sudoeste 0 990.2 -0.1 80
2018-09-03 04:00:00 22.9 4 Sudoeste 12 Sur 0 990 -0.6 78
2018-09-03 03:00:00 23.8 5 Sudoeste 12 Oeste 0 990.3 0.1 74
2018-09-03 02:00:00 25.2 6 Sudoeste 17 Oeste 0 990.3 0.5 66
2018-09-03 01:00:00 26.7 9 Sudoeste 19 Oeste 0 990.6 1.6 61
2018-09-03 00:00:00 28 12 Oeste 25 Sudoeste 0 990.2 1.7 56
2018-09-02 23:00:00 30.4 12 Sudoeste 23 Oeste 0 989.8 1.5 45
2018-09-02 22:00:00 31.4 4 Sudoeste 14 Oeste 0 989 0.7 41
2018-09-02 21:00:00 33.6 6 Sudoeste 24 Oeste 0 988.5 0.1 34
2018-09-02 20:00:00 35.4 12 Oeste 30 Oeste 0 988.3 -0.7 30
2018-09-02 19:00:00 37.7 14 Oeste 22 Oeste 0 988.3 -1.7 26
2018-09-02 18:00:00 36.9 8 Nordeste 24 Nordeste 0 988.4 -2.5 24
2018-09-02 17:00:00 38.3 17 Este 27 Nordeste 0 989 -2.8 23
2018-09-02 16:00:00 37.3 15 Nordeste 25 Este 0 990 -2.6 25
2018-09-02 15:00:00 36.4 16 Este 25 Este 0 990.9 -2.4 26
2018-09-02 14:00:00 34.7 17 Este 28 Este 0 991.8 -1.9 30
2018-09-02 13:00:00 32.7 13 Este 21 Este 0 992.6 -0.8 33
2018-09-02 12:00:00 29.9 10 Nordeste 16 Nordeste 0 993.3 0 45
2018-09-02 11:00:00 28.1 5 Este 10 Este 0 993.7 1 50
2018-09-02 10:00:00 24.3 5 Este 10 Nordeste 0 993.4 1.1 65
2018-09-02 09:00:00 21.8 0 Calma 6 Este 0 993.3 1.2 75
2018-09-02 08:00:00 21.3 5 Este 9 Nordeste 0 992.7 1 76
2018-09-02 07:00:00 22.4 3 Noroeste 10 Sur 0 992.3 0.3 69
2018-09-02 06:00:00 22.7 3 Sur 7 Oeste 0 992.1 0.1 68
2018-09-02 05:00:00 23.5 5 Oeste 10 Oeste 0 991.7 -0.3 63
2018-09-02 04:00:00 25.2 4 Sudoeste 11 Sudoeste 0 992 0.1 55
2018-09-02 03:00:00 26 4 Sudoeste 10 Sur 0 992 0.4 52
2018-09-02 02:00:00 27 5 Sudoeste 9 Sudoeste 0 992 0.7 49
2018-09-02 01:00:00 28.9 4 Sudoeste 17 Oeste 0 991.9 1.3 43
2018-09-02 00:00:00 30.8 7 Sudoeste 22 Oeste 0 991.6 1.8 38
2018-09-01 23:00:00 31.8 7 Sudoeste 20 Sudoeste 0 991.3 1.7 35
2018-09-01 22:00:00 33.2 7 Sudoeste 24 Sur 0 990.6 1 27
2018-09-01 21:00:00 34.9 7 Sur 13 Sur 0 989.8 -0.1 21
2018-09-01 20:00:00 37.9 8 Sudeste 25 Sudeste 0 989.6 -0.7 18
2018-09-01 19:00:00 39.1 11 Este 27 Este 0 989.6 -1.4 18
2018-09-01 18:00:00 39 14 Este 29 Nordeste 0 989.9 -1.7 21
2018-09-01 17:00:00 39.4 16 Nordeste 38 Sudeste 0 990.3 -1.9 19
2018-09-01 16:00:00 39.6 17 Nordeste 28 Este 0 991 -2 19
2018-09-01 15:00:00 39.6 13 Sudeste 31 Este 0 991.6 -1.9 18
2018-09-01 14:00:00 38.2 12 Sudeste 23 Sudeste 0 992.2 -1.2 19
2018-09-01 13:00:00 33.6 6 Nordeste 13 Nordeste 0 993 -0.4 33
2018-09-01 12:00:00 31.1 8 Este 14 Nordeste 0 993.5 0.3 36
2018-09-01 11:00:00 27.7 6 Nordeste 12 Este 0 993.4 0.6 41
2018-09-01 10:00:00 24.7 6 Este 10 Este 0 993.4 0.9 47
2018-09-01 09:00:00 21.2 3 Este 7 Sudeste 0 993.2 1.1 61
2018-09-01 08:00:00 20.3 3 Nordeste 5 Noroeste 0 992.8 0.8 60
2018-09-01 07:00:00 21.3 3 Sudoeste 8 Sur 0 992.5 0.3 55
2018-09-01 06:00:00 21.2 4 Sudeste 11 Norte 0 992.1 0 62
2018-09-01 05:00:00 23.6 5 Sudoeste 8 Sudoeste 0 992 0 47
2018-09-01 04:00:00 23.1 4 Oeste 8 Noroeste 0 992.2 -0.1 53
2018-09-01 03:00:00 23.8 4 Este 10 Nordeste 0 992.1 0.2 49
2018-09-01 02:00:00 25.2 4 Oeste 10 Nordeste 0 992 0.1 42
2018-09-01 01:00:00 26.6 8 Sur 10 Sur 0 992.3 0.9 33
2018-09-01 00:00:00 27 6 Sudeste 9 Sur 0 991.9 1 34
2018-08-31 23:00:00 28.4 2 Sudeste 5 Sudeste 0 991.9 1 35
2018-08-31 22:00:00 30.5 0 Calma 5 Norte 0 991.4 0.3 34
2018-08-31 21:00:00 34.2 4 Norte 9 Nordeste 0 990.9 -0.5 26
2018-08-31 20:00:00 36.5 8 Nordeste 15 Nordeste 0 990.9 -1.1 21
2018-08-31 19:00:00 37.5 10 Nordeste 18 Norte 0 991.1 -1.6 18
2018-08-31 18:00:00 38.3 6 Este 16 Este 0 991.4 -1.7 17
2018-08-31 17:00:00 37.8 10 Nordeste 21 Este 0 992 -1.7 19
2018-08-31 16:00:00 37.6 10 Este 19 Este 0 992.7 -1.3 20
2018-08-31 15:00:00 36.2 6 Nordeste 15 Este 0 993.1 -1.4 23
2018-08-31 14:00:00 34.3 4 Nordeste 16 Este 0 993.7 -1.1 29
2018-08-31 13:00:00 32 5 Este 12 Este 0 994 -0.6 34
2018-08-31 12:00:00 29.1 5 Nordeste 10 Nordeste 0 994.5 0.1 42
2018-08-31 11:00:00 26.1 5 Este 12 Norte 0 994.8 0.8 48
2018-08-31 10:00:00 23.4 3 Oeste 5 Noroeste 0 994.6 1.1 54
2018-08-31 09:00:00 20.5 2 Sur 4 Sudeste 0 994.4 1 64
2018-08-31 08:00:00 19.3 0 Calma 10 Oeste 0 994 0.6 68
2018-08-31 07:00:00 20.5 3 Oeste 8 Oeste 0 993.5 0.1 60
2018-08-31 06:00:00 21 5 Sudoeste 9 Sudoeste 0 993.4 -0.2 59
2018-08-31 05:00:00 21.8 2 Noroeste 10 Oeste 0 993.4 -0.4 58
2018-08-31 04:00:00 23.1 5 Oeste 14 Oeste 0 993.4 -0.5 55
2018-08-31 03:00:00 23.8 5 Oeste 9 Oeste 0 993.6 -0.2 52
2018-08-31 02:00:00 24.6 6 Sudoeste 11 Sudoeste 0 993.8 0.3 51
2018-08-31 01:00:00 25 7 Oeste 15 Oeste 0 993.9 0.7 51
2018-08-31 00:00:00 26.5 10 Oeste 17 Oeste 0 993.8 0.9 44
2018-08-30 23:00:00 27.8 4 Oeste 8 Oeste 0 993.5 0.5 35
2018-08-30 22:00:00 29.4 5 Oeste 6 Oeste 0 993.2 0 32
2018-08-30 21:00:00 31.9 0 Calma 10 Este 0 992.9 -0.4 30
2018-08-30 20:00:00 34.6 7 Este 13 Norte 0 993 -0.8 23
2018-08-30 19:00:00 34.9 9 Nordeste 15 Norte 0 993.2 -1.1 21
2018-08-30 18:00:00 35.3 8 Nordeste 19 Nordeste 0 993.3 -1.5 21
2018-08-30 17:00:00 35.6 6 Norte 19 Norte 0 993.8 -1.5 20
2018-08-30 16:00:00 34.9 7 Noroeste 17 Nordeste 0 994.3 -1.5 22
2018-08-30 15:00:00 33.2 6 Noroeste 15 Noroeste 0 994.8 -1.4 30
2018-08-30 14:00:00 31.1 5 Noroeste 15 Nordeste 0 995.3 -0.8 37
2018-08-30 13:00:00 28.6 4 Nordeste 9 Nordeste 0 995.8 -0.2 42
2018-08-30 12:00:00 25.9 5 Este 10 Este 0 996.2 0.4 49
2018-08-30 11:00:00 22.6 4 Noroeste 9 Noroeste 0 996.1 0.9 60
2018-08-30 10:00:00 20 3 Noroeste 6 Norte 0 996 1 67
2018-08-30 09:00:00 17.7 0 Calma 8 Sudoeste 0 995.8 0.7 76
2018-08-30 08:00:00 16.8 5 Oeste 11 Oeste 0 995.2 0 78
2018-08-30 07:00:00 17.2 5 Sudoeste 12 Oeste 0 995 -0.2 77
2018-08-30 06:00:00 17.7 4 Sudoeste 12 Noroeste 0 995.1 -0.5 76
2018-08-30 05:00:00 18.3 8 Oeste 16 Oeste 0 995.2 -0.3 74
2018-08-30 04:00:00 19.4 6 Oeste 17 Oeste 0 995.2 -0.5 70
2018-08-30 03:00:00 19.9 8 Oeste 16 Noroeste 0 995.6 0.2 68
2018-08-30 02:00:00 20.8 10 Oeste 18 Oeste 0 995.5 0.3 65
2018-08-30 01:00:00 21.5 12 Oeste 20 Oeste 0 995.7 1.2 63
2018-08-30 00:00:00 22.7 15 Oeste 24 Oeste 0 995.4 1.4 58
2018-08-29 23:00:00 24.7 14 Oeste 28 Noroeste 0 995.2 1.3 51
2018-08-29 22:00:00 27 13 Oeste 22 Oeste 0 994.5 0.6 42
2018-08-29 21:00:00 28.7 13 Oeste 22 Oeste 0 994 -0.2 40
2018-08-29 20:00:00 31.7 3 Sudoeste 10 Oeste 0 993.9 -0.7 30
2018-08-29 19:00:00 32.5 5 Noroeste 14 Noroeste 0 993.9 -1.3 27
2018-08-29 18:00:00 32 5 Sudoeste 17 Oeste 0 994.2 -1.3 30
2018-08-29 17:00:00 31.1 7 Oeste 19 Noroeste 0 994.6 -1.4 33
2018-08-29 16:00:00 29.8 10 Noroeste 20 Noroeste 0 995.2 -1.6 37
2018-08-29 15:00:00 28.7 5 Sudoeste 14 Sudoeste 0 995.5 -1.7 40
2018-08-29 14:00:00 26.5 5 Norte 14 Noroeste 0 996 -1.2 49
2018-08-29 13:00:00 24.7 4 Norte 14 Noroeste 0 996.8 0 56
2018-08-29 12:00:00 22.5 6 Noroeste 14 Noroeste 0 997.2 0.6 63
2018-08-29 11:00:00 20.8 6 Noroeste 15 Noroeste 0 997.2 1.2 70
2018-08-29 10:00:00 19 10 Noroeste 15 Noroeste 0 996.8 1.3 78
2018-08-29 09:00:00 18 9 Oeste 13 Oeste 0 996.6 1 84
2018-08-29 08:00:00 17.3 8 Oeste 10 Oeste 0 996 0.6 86
2018-08-29 07:00:00 18.2 6 Oeste 13 Oeste 0 995.5 0 83
2018-08-29 06:00:00 18.5 8 Oeste 15 Oeste 0 995.6 0 81
2018-08-29 05:00:00 18.9 9 Oeste 16 Sudoeste 0 995.4 0.1 79
2018-08-29 04:00:00 18.8 10 Oeste 17 Oeste 0 995.5 0.5 81
2018-08-29 03:00:00 18.7 4 Sudoeste 24 Oeste 0 995.6 0.5 79
2018-08-29 02:00:00 19.3 10 Oeste 21 Oeste 0 995.3 0.6 78
2018-08-29 01:00:00 20.1 11 Oeste 20 Oeste 0 995 1.1 74
2018-08-29 00:00:00 20.6 11 Oeste 35 Noroeste 0 995.1 1.8 73
2018-08-28 23:00:00 21.9 18 Oeste 31 Oeste 0 994.7 1.8 67
2018-08-28 22:00:00 23.6 12 Oeste 25 Oeste 0 993.9 1.5 56
2018-08-28 21:00:00 25.8 17 Oeste 35 Oeste 0 993.3 0.9 48
2018-08-28 20:00:00 28.1 23 Oeste 39 Noroeste 0 992.9 0.2 41
2018-08-28 19:00:00 30.8 26 Noroeste 36 Noroeste 0 992.4 -0.9 35
2018-08-28 18:00:00 33.3 15 Oeste 32 Oeste 0 992.4 -1.4 25
2018-08-28 17:00:00 33.5 13 Oeste 30 Oeste 0 992.7 -1.4 26
2018-08-28 16:00:00 31.5 12 Oeste 32 Noroeste 0 993.3 -1.1 39
2018-08-28 15:00:00 30.1 12 Oeste 26 Oeste 0 993.8 -0.5 48
2018-08-28 14:00:00 29.2 11 Oeste 23 Sudoeste 0 994.1 0.1 51
2018-08-28 13:00:00 28.3 10 Oeste 29 Oeste 0 994.4 0.9 55
2018-08-28 12:00:00 27 12 Oeste 22 Oeste 0 994.3 0.9 60
2018-08-28 11:00:00 25.6 9 Oeste 21 Sur 0 994 1 64
2018-08-28 10:00:00 24.2 10 Sur 19 Sur 0 993.5 1.1 70
2018-08-28 09:00:00 23.1 6 Sur 14 Sur 0 993.4 1.7 76
2018-08-28 08:00:00 22 5 Sur 8 Sur 0 993 1.5 78
2018-08-28 07:00:00 21.5 3 Este 12 Sudeste 0 992.4 1 78
2018-08-28 06:00:00 22.7 6 Sur 16 Sudoeste 0 991.7 -0.1 74
2018-08-28 05:00:00 23.8 7 Sur 13 Sur 0 991.5 -0.4 70
2018-08-28 04:00:00 24.5 5 Sudoeste 15 Sudoeste 0 991.4 0.1 67
2018-08-28 03:00:00 25.5 7 Sudoeste 17 Sur 0 991.8 1.3 56
2018-08-28 02:00:00 26.9 4 Sudoeste 16 Sur 0 991.9 2.4 38
2018-08-28 01:00:00 28.3 6 Sudoeste 29 Sudoeste 0 991.3 3.1 34
2018-08-28 00:00:00 29.7 9 Sudoeste 31 Sudoeste 0 990.5 3.3 32
2018-08-27 23:00:00 32.1 12 Sudoeste 32 Sudoeste 0 989.5 1.8 31
2018-08-27 22:00:00 33.7 11 Sur 27 Sudoeste 0 988.2 -0.1 24
2018-08-27 21:00:00 33.1 13 Este 24 Este 0 987.2 -1.5 25
2018-08-27 20:00:00 36.1 10 Este 19 Este 0 987.7 -1.4 24
2018-08-27 19:00:00 38.6 12 Este 19 Este 0 988.3 -1.2 17
2018-08-27 18:00:00 39 13 Este 20 Este 0 988.7 -2.9 15
2018-08-27 17:00:00 37.6 9 Nordeste 19 Nordeste 0 989.1 -2.9 17
2018-08-27 16:00:00 36.1 12 Este 27 Norte 0 989.5 -2.4 22
2018-08-27 15:00:00 31.7 7 Este 26 Nordeste 0 991.6 0.1 30
2018-08-27 14:00:00 29.6 12 Noroeste 26 Oeste 0 992 0.8 30
2018-08-27 13:00:00 27.2 10 Noroeste 25 Oeste 0 991.9 0.8 38
2018-08-27 12:00:00 24.6 6 Nordeste 16 Este 0 991.5 0 41
2018-08-27 11:00:00 23 9 Este 18 Nordeste 0 991.2 0.7 45
2018-08-27 10:00:00 21.3 10 Nordeste 17 Nordeste 0 991.1 1.2 47
2018-08-27 09:00:00 18 2 Noroeste 4 Norte 0 991.5 1.5 59
2018-08-27 08:00:00 16.3 4 Este 6 Este 0 990.5 0.1 58
2018-08-27 07:00:00 16.5 3 Este 5 Este 0 989.9 -0.7 64
2018-08-27 06:00:00 17.5 3 Sudeste 6 Este 0 990 -0.8 60
2018-08-27 05:00:00 18.7 2 Sudeste 5 Este 0 990.4 -0.8 54
2018-08-27 04:00:00 20.3 3 Nordeste 6 Sudoeste 0 990.6 -0.5 51
2018-08-27 03:00:00 22.6 4 Sudoeste 8 Sudoeste 0 990.8 0 43
2018-08-27 02:00:00 22.8 4 Sudoeste 8 Sudoeste 0 991.2 0.6 38
2018-08-27 01:00:00 25 5 Sudoeste 10 Sudoeste 0 991.1 0.9 29
2018-08-27 00:00:00 26.9 5 Sudoeste 10 Oeste 0 990.8 1 23
2018-08-26 23:00:00 28 5 Sudoeste 10 Oeste 0 990.6 0.8 23
2018-08-26 22:00:00 30.9 6 Oeste 15 Noroeste 0 990.2 0.3 20
2018-08-26 21:00:00 34.2 6 Oeste 16 Oeste 0 989.8 -0.2 12
2018-08-26 20:00:00 36.8 7 Sudoeste 20 Oeste 0 989.8 -0.3 11
2018-08-26 19:00:00 38 8 Oeste 25 Oeste 0 989.9 -0.8 10
2018-08-26 18:00:00 38.4 14 Oeste 34 Noroeste 0 990 -1.5 9
2018-08-26 17:00:00 37.9 15 Oeste 31 Noroeste 0 990.1 -1.9 11
2018-08-26 16:00:00 37.1 13 Noroeste 28 Noroeste 0 990.7 -1.7 15
2018-08-26 15:00:00 35.5 9 Noroeste 20 Oeste 0 991.5 -1.2 17
2018-08-26 14:00:00 33 4 Sudoeste 10 Noroeste 0 992 -0.7 27
2018-08-26 13:00:00 29.6 5 Nordeste 11 Nordeste 0 992.4 -0.1 35
2018-08-26 12:00:00 26.6 4 Nordeste 11 Nordeste 0 992.7 0.5 42
2018-08-26 11:00:00 23.4 3 Oeste 8 Noroeste 0 992.7 0.9 47
2018-08-26 10:00:00 20.1 5 Oeste 9 Noroeste 0 992.5 1 61
2018-08-26 09:00:00 18.1 5 Oeste 9 Oeste 0 992.2 1 67
2018-08-26 08:00:00 16.6 5 Oeste 10 Oeste 0 991.8 0.6 73
2018-08-26 07:00:00 16.9 3 Oeste 5 Oeste 0 991.5 0.3 70
2018-08-26 06:00:00 18.1 3 Sudoeste 12 Noroeste 0 991.2 -0.3 65
2018-08-26 05:00:00 18.7 7 Oeste 15 Oeste 0 991.2 -0.6 64
2018-08-26 04:00:00 20.2 7 Oeste 15 Oeste 0 991.2 -0.4 59
2018-08-26 03:00:00 21.3 9 Oeste 16 Noroeste 0 991.5 0 56
2018-08-26 02:00:00 22.7 8 Oeste 18 Oeste 0 991.8 0.7 52
2018-08-26 01:00:00 24.2 8 Oeste 22 Oeste 0 991.6 1.4 46
2018-08-26 00:00:00 26 9 Oeste 20 Sudoeste 0 991.5 1.9 39
2018-08-25 23:00:00 27.7 9 Oeste 17 Oeste 0 991.1 1.7 30
2018-08-25 22:00:00 29.1 9 Oeste 21 Oeste 0 990.2 0.8 24
2018-08-25 21:00:00 31.6 10 Oeste 19 Oeste 0 989.6 -0.1 19
2018-08-25 20:00:00 35 16 Oeste 24 Noroeste 0 989.4 -0.7 15
2018-08-25 19:00:00 36.4 18 Oeste 26 Noroeste 0 989.4 -1.5 12
2018-08-25 18:00:00 37.4 14 Oeste 29 Oeste 0 989.7 -1.8 12
2018-08-25 17:00:00 37.1 17 Noroeste 28 Noroeste 0 990.1 -2.1 10
2018-08-25 16:00:00 36.4 10 Noroeste 23 Oeste 0 990.9 -1.9 14
2018-08-25 15:00:00 35.7 9 Oeste 19 Noroeste 0 991.5 -1.9 15
2018-08-25 14:00:00 34.2 8 Noroeste 15 Noroeste 0 992.2 -1.4 18
2018-08-25 13:00:00 32.9 6 Noroeste 15 Noroeste 0 992.8 -0.8 20
2018-08-25 12:00:00 30.1 9 Noroeste 14 Norte 0 993.4 0 24
2018-08-25 11:00:00 26.2 6 Oeste 13 Noroeste 0 993.6 0.4 32
2018-08-25 10:00:00 22.4 7 Oeste 13 Oeste 0 993.6 0.6 41
2018-08-25 09:00:00 20.3 7 Oeste 12 Oeste 0 993.4 0.3 46
2018-08-25 08:00:00 19.4 6 Oeste 12 Oeste 0 993.2 -0.1 47
2018-08-25 07:00:00 20.3 7 Oeste 13 Oeste 0 993 -0.4 43
2018-08-25 06:00:00 21 5 Oeste 15 Oeste 0 993.1 -0.3 43
2018-08-25 05:00:00 22.3 6 Oeste 14 Oeste 0 993.3 -0.3 40
2018-08-25 04:00:00 23.4 8 Oeste 14 Oeste 0 993.4 -0.1 34
2018-08-25 03:00:00 24.5 6 Oeste 11 Sudoeste 0 993.4 0.1 33
2018-08-25 02:00:00 25.4 8 Oeste 15 Oeste 0 993.6 0.5 33
2018-08-25 01:00:00 25.9 11 Oeste 18 Oeste 0 993.5 1 33
2018-08-25 00:00:00 27.8 9 Oeste 19 Noroeste 0 993.3 1.5 31